Terminal Aerodrome Forecast
Issued by NWS Portland, OR

Home | Current Version | Previous Version | Text Only | Print | Product List | Glossary On
Versions: 1 2 3 4 5 6 7 8 9 10 11 12 13 14 15 16 17 18 19 20 21 22
000
FTUS46 KPQR 240301 AAA
TAFHIO
TAF AMD
KHIO 240301Z 2403/2424 20012KT P6SM -SN SCT025 BKN035 OVC050
     FM240500 16007KT 1SM -SN BKN010 OVC020
     FM241000 20009KT P6SM -RASN BKN015 BKN025 OVC040
     FM241300 24009KT P6SM -SHRA SCT015 BKN025 OVC040
     FM241800 27012KT P6SM -SHRA SCT025 BKN035 OVC045=

USA.gov is the U.S. government's official web portal to all federal, state and local government web resources and services.